In Rescue
 
Open Full Screen Window  High Contrast Mode
November 27, 2020 9:30 PM PST
Weather Information
Wind Direction
  ---
Wind Speed
  00 kt (0 mph)
Wind Gust
  00 kt (0 mph)
Altimeter
30.24 in
Visibility
10 SM
Temperature
04° C
39° F
Dewpoint
-01° C
30° F
Humidity
70%
1hr Rain Fall
00.00 in.
24hr Rain Fall
00.00 in.
Sky Condition
Clear
VFR

METAR KHAF 280530Z AUTO 00000KT 10SM CLR 04/M01 A3024 RMK AO2

FAA Disclaimer: The data displayed is for advisory purposes only and is not to be used for flight planning or operations.